< < Back
Terminal Aerodrome Forecast


Current Version              Previous Versions:   1  2  3  4  5  6  7  8  9  

Terminal Aerodrome Forecast

350
FTUS42 KJAX 030520
TAFJAX
TAF
KJAX 030520Z 0306/0406 00000KT P6SM SKC
     FM031500 10009KT P6SM SKC
     FM040100 11003KT P6SM SKC=

Latest METAR

643
SAUS80 KWBC 031700
MTRJAX
METAR KJAX 031656Z 09012G18KT 020V110 10SM SCT050 SCT250 26/08 A3019 RMK
AO2 SLP222 T02610078


USA.gov is the U.S. government's official web portal to all federal, state and local government web resources and services.